createdAt,value
2024-03-15T00:00:20.030Z,5.15
2024-03-15T00:02:49.794Z,4.60
2024-03-15T00:05:16.824Z,4.38
2024-03-15T00:07:43.612Z,4.40
2024-03-15T00:10:10.989Z,5.00
2024-03-15T00:12:38.092Z,4.75
2024-03-15T00:15:05.259Z,5.85
2024-03-15T00:17:33.385Z,6.88
2024-03-15T00:20:00.656Z,5.93
2024-03-15T00:22:27.725Z,8.93
2024-03-15T00:24:56.883Z,7.70
2024-03-15T00:27:23.883Z,9.83
2024-03-15T00:29:51.508Z,13.88
2024-03-15T00:32:18.350Z,7.63
2024-03-15T00:34:45.082Z,6.43
2024-03-15T00:37:11.894Z,6.22
2024-03-15T00:39:38.623Z,4.20
2024-03-15T00:42:05.482Z,3.77
2024-03-15T00:44:32.652Z,4.00
2024-03-15T00:46:59.541Z,3.23
2024-03-15T00:49:26.415Z,4.20
2024-03-15T00:51:53.312Z,3.65
2024-03-15T00:54:20.249Z,4.25
2024-03-15T00:56:47.533Z,3.90
2024-03-15T00:59:14.197Z,3.85
2024-03-15T01:01:41.317Z,5.83
2024-03-15T01:04:08.037Z,5.82
2024-03-15T01:06:34.874Z,5.57
2024-03-15T01:09:01.659Z,5.27
2024-03-15T01:11:29.775Z,5.10
2024-03-15T01:13:58.771Z,15.50
2024-03-15T01:16:27.222Z,5.93
2024-03-15T01:18:55.461Z,5.90
2024-03-15T01:21:27.854Z,5.83
2024-03-15T01:23:56.184Z,6.03
2024-03-15T01:26:23.306Z,5.90
2024-03-15T01:28:50.016Z,5.90
2024-03-15T01:31:16.713Z,14.10
2024-03-15T01:33:43.506Z,12.83
2024-03-15T01:36:12.321Z,10.70
2024-03-15T01:38:39.541Z,4.60
2024-03-15T01:41:06.963Z,6.03
2024-03-15T01:43:33.969Z,6.40
2024-03-15T01:46:00.964Z,6.17
2024-03-15T01:48:28.273Z,5.65
2024-03-15T01:50:55.297Z,4.20
2024-03-15T01:53:22.953Z,5.20
2024-03-15T01:55:49.673Z,5.70
2024-03-15T01:58:16.452Z,5.77
2024-03-15T02:00:43.313Z,13.73
2024-03-15T02:03:10.408Z,10.07
2024-03-15T02:05:37.229Z,7.30
2024-03-15T02:08:09.569Z,6.03
2024-03-15T02:10:36.690Z,10.30
2024-03-15T02:13:03.454Z,8.60
2024-03-15T02:15:30.228Z,15.63
2024-03-15T02:18:02.803Z,18.07
2024-03-15T02:20:29.589Z,17.07
2024-03-15T02:22:59.587Z,21.63
2024-03-15T02:25:26.347Z,14.10
2024-03-15T02:27:53.029Z,8.80
2024-03-15T02:30:21.724Z,6.07
2024-03-15T02:32:48.491Z,8.40
2024-03-15T02:35:24.543Z,9.47
2024-03-15T02:38:02.449Z,15.83
2024-03-15T02:40:29.575Z,8.87
2024-03-15T02:42:56.383Z,7.90
2024-03-15T02:45:23.624Z,21.70
2024-03-15T02:47:50.821Z,11.27
2024-03-15T02:50:20.384Z,10.60
2024-03-15T02:52:49.828Z,5.70
2024-03-15T02:55:16.935Z,5.53
2024-03-15T02:57:43.880Z,4.90
2024-03-15T03:00:11.273Z,5.60
2024-03-15T03:02:38.179Z,8.80
2024-03-15T03:05:05.229Z,6.80
2024-03-15T03:07:32.292Z,6.00
2024-03-15T03:09:59.603Z,4.50
2024-03-15T03:12:26.566Z,4.53
2024-03-15T03:14:53.252Z,7.40
2024-03-15T03:17:19.897Z,4.57
2024-03-15T03:19:46.584Z,4.00
2024-03-15T03:22:14.306Z,4.80
2024-03-15T03:24:42.177Z,6.17
2024-03-15T03:27:10.284Z,49.70
2024-03-15T03:29:37.430Z,12.23
2024-03-15T03:32:04.693Z,10.27
2024-03-15T03:34:31.691Z,4.38
2024-03-15T03:36:58.381Z,9.70
2024-03-15T03:39:27.124Z,7.43
2024-03-15T03:41:55.960Z,4.00
2024-03-15T03:44:22.615Z,9.03
2024-03-15T03:46:49.406Z,3.27
2024-03-15T03:49:16.037Z,2.60
2024-03-15T03:51:43.082Z,3.87
2024-03-15T03:54:10.465Z,5.10
2024-03-15T03:56:40.845Z,4.10
2024-03-15T03:59:07.658Z,3.40
2024-03-15T04:01:35.391Z,3.90
2024-03-15T04:04:02.277Z,6.03
2024-03-15T04:06:29.086Z,6.85
2024-03-15T04:08:55.846Z,5.97
2024-03-15T04:11:22.633Z,6.65
2024-03-15T04:13:53.717Z,5.97
2024-03-15T04:16:21.040Z,6.05
2024-03-15T04:18:48.056Z,8.20
2024-03-15T04:21:17.624Z,8.60
2024-03-15T04:23:45.619Z,8.33
2024-03-15T04:26:12.395Z,8.70
2024-03-15T04:28:41.571Z,10.73
2024-03-15T04:31:08.366Z,9.30
2024-03-15T04:33:37.127Z,6.70
2024-03-15T04:36:06.386Z,8.70
2024-03-15T04:38:34.057Z,8.77
2024-03-15T04:41:11.202Z,5.30
2024-03-15T04:43:38.372Z,7.05
2024-03-15T04:46:07.818Z,8.00
2024-03-15T04:48:34.650Z,8.33
2024-03-15T04:51:01.858Z,9.80
2024-03-15T04:53:28.705Z,12.13
2024-03-15T04:55:55.944Z,14.00
2024-03-15T04:58:22.844Z,12.67
2024-03-15T05:00:49.915Z,12.67
2024-03-15T05:03:16.850Z,16.70
2024-03-15T05:05:43.674Z,21.67
2024-03-15T05:08:10.375Z,18.20
2024-03-15T05:10:37.318Z,22.47
2024-03-15T05:13:07.802Z,12.17
2024-03-15T05:15:35.117Z,9.70
2024-03-15T05:18:02.139Z,12.40
2024-03-15T05:20:29.250Z,14.88
2024-03-15T05:22:55.967Z,12.63
2024-03-15T05:25:23.812Z,14.27
2024-03-15T05:27:51.445Z,14.60
2024-03-15T05:30:20.163Z,18.17
2024-03-15T05:32:47.800Z,18.75
2024-03-15T05:35:19.940Z,16.98
2024-03-15T05:37:47.056Z,17.60
2024-03-15T05:40:14.283Z,19.23
2024-03-15T05:42:42.297Z,18.47
2024-03-15T05:45:09.367Z,12.98
2024-03-15T05:47:36.309Z,14.75
2024-03-15T05:50:05.872Z,28.20
2024-03-15T05:52:35.778Z,32.77
2024-03-15T05:55:10.652Z,29.33
2024-03-15T05:57:37.467Z,30.30
2024-03-15T06:00:16.677Z,26.50
2024-03-15T06:02:45.328Z,19.10
2024-03-15T06:05:12.385Z,18.15
2024-03-15T06:07:39.065Z,18.50
2024-03-15T06:10:07.240Z,18.60
2024-03-15T06:12:34.439Z,15.05
2024-03-15T06:15:01.203Z,14.95
2024-03-15T06:17:27.906Z,16.10
2024-03-15T06:19:57.172Z,15.60
2024-03-15T06:22:25.403Z,17.42
2024-03-15T06:24:53.538Z,18.15
2024-03-15T06:27:21.744Z,12.23
2024-03-15T06:29:53.903Z,10.63
2024-03-15T06:32:27.395Z,8.48
2024-03-15T06:34:54.908Z,7.43
2024-03-15T06:37:23.909Z,8.40
2024-03-15T06:39:56.980Z,7.05
2024-03-15T06:42:38.993Z,15.10
2024-03-15T06:45:25.334Z,26.58
2024-03-15T06:48:04.266Z,10.25
2024-03-15T06:50:49.843Z,9.20
2024-03-15T06:53:19.140Z,10.07
2024-03-15T06:55:46.625Z,24.67
2024-03-15T06:58:22.462Z,18.48
2024-03-15T07:00:52.145Z,15.80
2024-03-15T07:03:20.056Z,15.63
2024-03-15T07:05:46.887Z,18.02
2024-03-15T07:08:16.249Z,17.52
2024-03-15T07:10:43.122Z,14.07
2024-03-15T07:13:10.637Z,26.20
2024-03-15T07:15:37.539Z,13.27
2024-03-15T07:18:06.663Z,17.27
2024-03-15T07:20:33.647Z,10.38
2024-03-15T07:23:00.530Z,13.60
2024-03-15T07:25:27.273Z,9.73
2024-03-15T07:27:56.437Z,9.25
2024-03-15T07:30:25.846Z,13.50
2024-03-15T07:32:55.471Z,6.57
2024-03-15T07:35:23.395Z,7.28
2024-03-15T07:37:51.326Z,7.47
2024-03-15T07:40:19.333Z,6.70
2024-03-15T07:42:46.632Z,3.95
2024-03-15T17:16:33.389Z,18.35
2024-03-15T17:19:00.224Z,18.90
2024-03-15T17:21:27.089Z,20.60
2024-03-15T17:23:53.789Z,27.95
2024-03-15T17:26:20.529Z,23.48
2024-03-15T17:28:47.310Z,18.95
2024-03-15T17:31:14.024Z,19.48
2024-03-15T17:33:40.835Z,19.60
2024-03-15T17:36:10.406Z,17.15
2024-03-15T17:38:37.335Z,17.10
2024-03-15T17:41:04.285Z,16.70
2024-03-15T17:43:31.209Z,20.55
2024-03-15T17:45:58.054Z,21.65
2024-03-15T17:48:26.453Z,20.45
2024-03-15T17:50:54.870Z,21.27
2024-03-15T17:53:21.664Z,25.77
2024-03-15T17:55:51.564Z,30.00
2024-03-15T17:58:18.322Z,26.88
2024-03-15T18:00:46.428Z,17.17
2024-03-15T18:03:13.647Z,10.77
2024-03-15T18:05:40.376Z,12.70
2024-03-15T18:08:09.476Z,17.95
2024-03-15T18:10:36.934Z,14.23
2024-03-15T18:13:04.133Z,11.63
2024-03-15T18:15:31.018Z,13.15
2024-03-15T18:17:57.917Z,11.40
2024-03-15T18:20:24.760Z,11.20
2024-03-15T18:22:51.526Z,13.15
2024-03-15T18:25:18.276Z,13.13
2024-03-15T18:27:45.519Z,14.88
2024-03-15T18:30:12.417Z,18.35
2024-03-15T18:32:39.146Z,31.17
2024-03-15T18:35:05.996Z,26.80
2024-03-15T18:37:34.073Z,19.02
2024-03-15T18:40:01.033Z,22.17
2024-03-15T18:42:28.128Z,40.58
2024-03-15T18:44:57.944Z,41.78
2024-03-15T18:47:24.926Z,34.53
2024-03-15T18:49:53.191Z,31.60
2024-03-15T18:52:20.639Z,30.13
2024-03-15T18:54:50.664Z,27.38
2024-03-15T18:57:18.269Z,30.02
2024-03-15T18:59:45.853Z,25.02
2024-03-15T19:02:13.867Z,27.92
2024-03-15T19:04:41.200Z,29.13
2024-03-15T19:07:08.093Z,29.38
2024-03-15T19:09:34.937Z,24.38
2024-03-15T19:12:01.686Z,26.42
2024-03-15T19:14:30.438Z,25.73
2024-03-15T19:16:57.165Z,21.25
2024-03-15T19:19:24.062Z,29.92
2024-03-15T19:21:50.890Z,22.80
2024-03-15T19:24:18.609Z,20.58
2024-03-15T19:26:45.999Z,16.92
2024-03-15T19:29:13.124Z,13.15
2024-03-15T19:31:39.848Z,13.00
2024-03-15T19:34:06.747Z,12.55
2024-03-15T19:36:33.650Z,14.18
2024-03-15T19:39:00.597Z,13.98
2024-03-15T19:41:27.263Z,15.52
2024-03-15T19:43:54.094Z,16.77
2024-03-15T19:46:20.850Z,19.75
2024-03-15T19:48:48.546Z,20.27
2024-03-15T19:51:24.340Z,22.10
2024-03-15T19:53:51.163Z,19.75
2024-03-15T19:56:18.281Z,19.17
2024-03-15T19:58:46.015Z,24.60
2024-03-15T20:01:13.162Z,29.75
2024-03-15T20:03:40.377Z,29.45
2024-03-15T20:06:07.422Z,29.00
2024-03-15T20:08:34.122Z,30.95
2024-03-15T20:11:00.825Z,28.63
2024-03-15T20:13:27.546Z,27.92
2024-03-15T20:18:21.892Z,31.70
2024-03-15T20:20:48.879Z,25.17
2024-03-15T20:23:15.625Z,21.33
2024-03-15T20:25:43.745Z,23.38
2024-03-15T20:28:10.686Z,18.98
2024-03-15T20:30:38.308Z,18.05
2024-03-15T20:33:06.032Z,13.98
2024-03-15T20:35:32.864Z,13.90
2024-03-15T20:38:02.345Z,16.77
2024-03-15T20:40:29.398Z,16.67
2024-03-15T20:42:56.692Z,18.52
2024-03-15T20:45:24.285Z,18.70
2024-03-15T20:47:51.816Z,23.08
2024-03-15T20:50:21.022Z,20.77
2024-03-15T20:52:48.459Z,21.15
2024-03-15T20:55:15.359Z,22.30
2024-03-15T20:57:42.629Z,21.60
2024-03-15T21:00:13.935Z,145.02
2024-03-15T21:02:41.728Z,97.68
2024-03-15T21:05:15.227Z,39.30
2024-03-15T21:07:42.822Z,25.30
2024-03-15T21:10:12.064Z,18.92
2024-03-15T21:12:39.723Z,15.23
2024-03-15T21:15:07.141Z,16.73
2024-03-15T21:17:36.188Z,13.75
2024-03-15T21:20:13.893Z,12.50
2024-03-15T21:22:44.155Z,16.90
2024-03-15T21:25:14.242Z,16.65
2024-03-15T21:27:41.895Z,19.55
2024-03-15T21:30:09.182Z,22.85
2024-03-15T21:32:36.455Z,27.65
2024-03-15T21:35:07.195Z,27.52
2024-03-15T21:37:35.330Z,22.00
2024-03-15T21:40:03.585Z,20.20
2024-03-15T21:42:30.475Z,16.60
2024-03-15T21:44:58.817Z,15.32
2024-03-15T21:47:25.679Z,16.90
2024-03-15T21:49:52.547Z,15.70
2024-03-15T21:52:19.510Z,17.90
2024-03-15T21:54:49.166Z,14.50
2024-03-15T21:57:16.037Z,22.25
2024-03-15T21:59:46.434Z,16.77
2024-03-15T22:02:16.993Z,13.98
2024-03-15T22:04:43.865Z,13.90
2024-03-15T22:07:10.753Z,14.18
2024-03-15T22:09:37.792Z,12.77
2024-03-15T22:12:05.380Z,14.38
2024-03-15T22:14:33.807Z,15.07
2024-03-15T22:17:01.053Z,15.45
2024-03-15T22:19:27.795Z,14.50
2024-03-15T22:21:54.789Z,14.50
2024-03-15T22:24:22.126Z,14.80
2024-03-15T22:26:49.102Z,15.57
2024-03-15T22:29:15.928Z,16.25
2024-03-15T22:31:45.524Z,16.77
2024-03-15T22:34:12.473Z,16.80
2024-03-15T22:36:39.411Z,16.50
2024-03-15T22:39:06.220Z,18.83
2024-03-15T22:41:33.622Z,17.20
2024-03-15T22:44:00.404Z,15.85
2024-03-15T22:46:27.854Z,17.33
2024-03-15T22:48:54.821Z,17.67
2024-03-15T22:51:21.669Z,62.90
2024-03-15T22:53:48.636Z,21.08
2024-03-15T22:56:15.387Z,20.08
2024-03-15T22:58:42.652Z,18.92
2024-03-15T23:01:12.657Z,14.88
2024-03-15T23:03:40.906Z,13.93
2024-03-15T23:06:11.292Z,12.93
2024-03-15T23:08:38.770Z,18.30
2024-03-15T23:11:06.322Z,16.23
2024-03-15T23:13:36.376Z,14.88
2024-03-15T23:16:04.970Z,19.00
2024-03-15T23:18:31.986Z,31.73
2024-03-15T23:20:58.708Z,14.90
2024-03-15T23:23:26.439Z,17.00
2024-03-15T23:25:53.483Z,15.40
2024-03-15T23:28:20.962Z,14.68
2024-03-15T23:30:48.326Z,13.85
2024-03-15T23:33:15.916Z,14.65
2024-03-15T23:35:42.703Z,21.58
2024-03-15T23:38:09.560Z,26.23
2024-03-15T23:40:39.185Z,21.23
2024-03-15T23:43:09.689Z,16.50
2024-03-15T23:45:37.227Z,14.27
2024-03-15T23:48:04.506Z,15.52
2024-03-15T23:50:31.275Z,11.30
2024-03-15T23:52:58.124Z,11.02
2024-03-15T23:55:24.959Z,12.88
2024-03-15T23:57:51.858Z,12.80
